Time;durP1;ratioP1;P1;durP2;ratioP2;P2;SDS_P1;SDS_P2;PMS_P1;PMS_P2;Temp;Humidity;BMP_temperature;BMP_pressure;BME280_temperature;BME280_humidity;BME280_pressure;Samples;Min_cycle;Max_cycle;Signal;HPM_P1;HPM_P2
2021/03/23 00:00:41;;;;;;;27.42;12.27;;;9.20;99.90;;;9.28;66.54;102419.59;5093584;28;20036;-81
2021/03/23 00:03:31;;;;;;;24.23;12.02;;;9.20;99.90;;;9.36;66.40;102418.03;5093636;28;20097;-80
2021/03/23 00:05:59;;;;;;;;;;;9.20;99.90;;;9.55;66.14;102445.78;5092773;28;20056;-79
2021/03/23 00:08:30;;;;;;;23.48;12.02;;;9.30;99.90;;;9.63;65.92;102455.69;5092110;28;19974;-80
2021/03/23 00:11:04;;;;;;;20.10;11.27;;;9.30;99.90;;;9.63;65.63;102450.41;5093341;28;20562;-80
2021/03/23 00:13:31;;;;;;;20.20;11.57;;;9.40;99.90;;;9.66;65.48;102454.88;5093468;28;20401;-80
2021/03/23 00:16:02;;;;;;;23.95;12.75;;;9.40;99.90;;;9.68;65.46;102443.47;5092082;28;20040;-81
2021/03/23 00:18:29;;;;;;;23.65;11.73;;;9.40;99.90;;;9.08;65.57;102333.69;5093450;28;20044;-80
2021/03/23 00:20:57;;;;;;;28.25;12.20;;;9.50;99.90;;;9.78;65.53;102455.16;5093307;28;20508;-80
2021/03/23 00:23:25;;;;;;;24.13;12.98;;;9.50;99.90;;;9.84;65.60;102456.22;5093353;28;20043;-80
2021/03/23 00:25:52;;;;;;;28.73;14.77;;;9.50;99.90;;;9.88;65.55;102449.25;5093375;28;20066;-81
2021/03/23 00:28:24;;;;;;;26.73;13.10;;;9.60;99.90;;;9.71;65.22;102411.88;5093430;28;20044;-80
2021/03/23 00:30:53;;;;;;;23.60;13.65;;;9.60;99.90;;;9.94;65.48;102455.59;5093248;28;20051;-81
2021/03/23 00:33:21;;;;;;;25.45;13.27;;;9.60;99.90;;;9.74;65.49;102417.22;5093436;28;20127;-80
2021/03/23 00:35:52;;;;;;;38.00;14.45;;;9.70;99.90;;;9.99;65.66;102453.03;5109006;28;20078;-80
2021/03/23 00:38:24;;;;;;;27.13;13.32;;;9.70;99.90;;;9.99;65.31;102476.81;5093287;28;20040;-80
2021/03/23 00:40:55;;;;;;;25.05;14.52;;;9.70;99.90;;;10.00;65.33;102447.81;5093133;28;20059;-80
2021/03/23 00:43:23;;;;;;;27.90;14.73;;;9.70;99.90;;;10.07;65.33;102455.84;5092583;28;20051;-80
2021/03/23 00:45:52;;;;;;;25.92;14.25;;;9.70;99.90;;;10.07;65.52;102454.09;5093145;28;20032;-80
2021/03/23 00:48:21;;;;;;;34.67;16.00;;;9.70;99.90;;;9.87;65.67;102423.69;5093126;28;20032;-80
2021/03/23 00:50:50;;;;;;;30.63;15.70;;;9.70;99.90;;;10.00;65.43;102452.19;5091796;28;20511;-80
2021/03/23 00:53:18;;;;;;;31.42;16.75;;;9.70;99.90;;;9.88;66.08;102442.22;5091734;28;20451;-78
2021/03/23 00:55:45;;;;;;;37.67;16.73;;;9.70;99.90;;;9.97;65.81;102447.72;5092932;28;20036;-80
2021/03/23 00:58:13;;;;;;;31.13;17.52;;;9.70;99.90;;;9.88;66.10;102431.66;5092753;28;20043;-78
2021/03/23 01:00:41;;;;;;;35.75;17.30;;;9.70;99.90;;;10.08;65.83;102452.38;5092866;28;20138;-80
2021/03/23 01:03:09;;;;;;;26.33;16.83;;;9.70;99.90;;;10.09;65.84;102451.50;5092907;28;20115;-80
2021/03/23 01:05:37;;;;;;;35.90;17.63;;;9.70;99.90;;;10.06;66.19;102441.75;5092654;28;20041;-80
2021/03/23 01:08:07;;;;;;;29.67;17.70;;;9.70;99.90;;;9.99;66.14;102447.75;5092848;28;20083;-79
2021/03/23 01:10:37;;;;;;;34.28;18.50;;;9.70;99.90;;;9.98;66.31;102449.53;5092751;28;20404;-78
2021/03/23 01:13:06;;;;;;;33.97;18.63;;;9.70;99.90;;;10.00;66.74;102442.53;5092863;28;20070;-81
2021/03/23 01:15:34;;;;;;;29.52;16.90;;;9.70;99.90;;;10.05;66.63;102439.97;5092618;28;20133;-80
2021/03/23 01:18:05;;;;;;;38.08;17.95;;;9.70;99.90;;;10.01;66.82;102432.81;5092765;28;20048;-80
2021/03/23 01:20:36;;;;;;;31.98;16.55;;;9.70;99.90;;;9.98;67.35;102438.03;5092606;28;20135;-80
2021/03/23 01:23:04;;;;;;;33.15;18.42;;;9.70;99.90;;;9.99;67.36;102434.53;5091160;28;20406;-80
2021/03/23 01:25:35;;;;;;;31.23;18.83;;;9.70;99.90;;;9.98;67.86;102438.03;5093022;28;20044;-80
2021/03/23 01:28:06;;;;;;;33.92;17.90;;;9.70;99.90;;;9.94;67.99;102431.81;5092713;28;20036;-79
2021/03/23 01:30:33;;;;;;;33.42;18.08;;;9.60;99.90;;;9.96;68.16;102423.91;5092564;28;20041;-79
2021/03/23 01:33:06;;;;;;;34.20;18.73;;;9.60;99.90;;;9.98;67.96;102423.09;5092563;28;20084;-79
2021/03/23 01:35:34;;;;;;;30.52;18.77;;;9.60;99.90;;;9.96;67.92;102416.88;5092496;28;20062;-80
2021/03/23 01:38:02;;;;;;;34.08;17.70;;;9.70;99.90;;;10.01;67.61;102419.59;5092666;28;20036;-80
2021/03/23 01:40:31;;;;;;;33.05;17.90;;;9.70;99.90;;;9.97;67.67;102431.84;5092408;28;20047;-79
2021/03/23 01:43:00;;;;;;;35.60;17.98;;;9.70;99.90;;;9.98;68.15;102428.38;5092244;28;20401;-79
2021/03/23 01:45:35;;;;;;;32.30;18.30;;;9.70;99.90;;;9.96;67.70;102418.63;5092476;28;20505;-80
2021/03/23 01:48:09;;;;;;;30.00;17.70;;;9.70;99.90;;;9.97;67.79;102418.63;5092284;28;20044;-80
2021/03/23 01:50:36;;;;;;;30.02;18.55;;;9.70;99.90;;;9.97;67.94;102416.00;5092531;28;20040;-80
2021/03/23 01:53:11;;;;;;;30.70;18.80;;;9.70;99.90;;;9.98;67.68;102417.81;5092365;28;20209;-79
2021/03/23 01:55:39;;;;;;;35.13;19.08;;;9.60;99.90;;;9.92;67.91;102401.78;5091419;28;20051;-80
2021/03/23 01:58:10;;;;;;;34.25;18.80;;;9.70;99.90;;;10.04;67.50;102412.63;5096103;28;20439;-80
2021/03/23 02:00:38;;;;;;;31.27;19.00;;;9.70;99.90;;;10.07;67.34;102408.25;5095760;28;20044;-80
2021/03/23 02:03:08;;;;;;;35.08;19.25;;;9.70;99.90;;;10.03;68.03;102402.91;5096239;28;20492;-79
2021/03/23 02:05:35;;;;;;;28.83;17.57;;;9.70;99.90;;;9.79;68.19;102357.44;5096213;28;20040;-80
2021/03/23 02:08:06;;;;;;;30.65;19.05;;;9.70;99.90;;;9.97;67.87;102400.13;5096299;28;20059;-80
2021/03/23 02:10:34;;;;;;;32.90;19.20;;;9.70;99.90;;;9.91;67.87;102389.41;5095976;28;20492;-80
2021/03/23 02:13:05;;;;;;;27.90;18.50;;;9.60;99.90;;;9.95;67.80;102390.38;5095790;28;20052;-80
2021/03/23 02:15:32;;;;;;;;;;;9.60;99.90;;;9.95;67.82;102387.72;5094983;28;20048;-80
2021/03/23 02:18:14;;;;;;;36.10;21.90;;;9.60;99.90;;;9.91;67.58;102388.56;5095972;28;19920;-80
2021/03/23 02:21:07;;;;;;;38.58;21.75;;;9.60;99.90;;;9.75;67.94;102387.31;5095673;28;20058;-79
2021/03/23 02:23:38;;;;;;;36.63;22.45;;;9.50;99.90;;;9.66;68.14;102379.16;5095170;28;20047;-80
2021/03/23 02:26:10;;;;;;;44.00;23.33;;;9.40;99.90;;;9.61;67.94;102380.81;5095584;28;20047;-79
2021/03/23 02:28:52;;;;;;;42.35;23.48;;;9.30;99.90;;;9.63;68.09;102376.44;5095521;28;20040;-80
2021/03/23 02:31:27;;;;;;;41.50;23.65;;;9.20;99.90;;;9.60;68.10;102379.00;5095508;28;20481;-80
2021/03/23 02:33:56;;;;;;;38.42;23.13;;;9.20;99.90;;;9.56;67.98;102370.97;5095325;28;20489;-80
2021/03/23 02:36:29;;;;;;;43.15;25.25;;;9.20;99.90;;;9.34;67.87;102343.16;5095370;28;20047;-80
2021/03/23 02:38:57;;;;;;;38.25;24.27;;;9.20;99.90;;;9.44;67.95;102362.75;5095577;28;20051;-80
2021/03/23 02:41:25;;;;;;;47.50;26.45;;;9.10;99.90;;;9.41;68.38;102366.22;5095367;28;20089;-80
2021/03/23 02:43:53;;;;;;;43.03;26.10;;;9.10;99.90;;;9.39;68.22;102365.28;5095178;28;20093;-80
2021/03/23 02:46:21;;;;;;;46.78;27.00;;;9.00;99.90;;;8.84;68.21;102281.22;5095261;28;20115;-80
2021/03/23 02:48:49;;;;;;;43.60;28.40;;;9.00;99.90;;;8.63;68.84;102250.75;5095194;28;20126;-78
2021/03/23 02:51:19;;;;;;;53.38;29.38;;;8.90;99.90;;;8.96;68.94;102338.69;5093986;28;20044;-80
2021/03/23 02:53:49;;;;;;;56.22;30.65;;;8.80;99.90;;;9.05;69.03;102363.56;5095087;28;20097;-79
2021/03/23 02:56:17;;;;;;;55.83;31.58;;;8.70;99.90;;;8.92;69.14;102360.56;5095105;28;20538;-80
2021/03/23 02:58:49;;;;;;;47.25;30.05;;;8.60;99.90;;;8.93;69.45;102364.97;5093760;28;20055;-80
2021/03/23 03:01:17;;;;;;;51.20;30.55;;;8.50;99.90;;;8.87;69.18;102359.53;5094658;28;20056;-80
2021/03/23 03:03:45;;;;;;;50.40;29.42;;;8.50;99.90;;;8.86;69.79;102363.03;5094778;28;20047;-80
2021/03/23 03:06:13;;;;;;;56.88;32.35;;;8.50;99.90;;;8.81;69.38;102367.28;5094799;28;20040;-80
2021/03/23 03:08:43;;;;;;;53.97;32.05;;;8.50;99.90;;;8.61;70.16;102374.69;5094535;28;20055;-80
2021/03/23 03:11:12;;;;;;;50.75;30.88;;;8.30;99.90;;;8.64;70.13;102365.94;5094763;28;20713;-80
2021/03/23 03:13:43;;;;;;;51.58;30.38;;;8.30;99.90;;;8.70;70.07;102363.47;5094527;28;20040;-80
2021/03/23 03:16:10;;;;;;;46.67;30.30;;;8.30;99.90;;;8.69;70.05;102366.97;5094882;28;20040;-80
2021/03/23 03:18:37;;;;;;;51.20;30.70;;;8.30;99.90;;;8.67;69.97;102366.03;5094755;28;20048;-80
2021/03/23 03:21:05;;;;;;;58.28;33.40;;;8.30;99.90;;;8.67;70.27;102360.78;5094535;28;20044;-80
2021/03/23 03:23:33;;;;;;;55.10;33.20;;;8.30;99.90;;;8.66;70.36;102361.59;5094491;28;20129;-80
2021/03/23 03:26:03;;;;;;;54.78;32.53;;;8.30;99.90;;;8.65;70.32;102362.47;5094344;28;20062;-80
2021/03/23 03:28:33;;;;;;;58.97;32.88;;;8.40;99.90;;;8.69;70.64;102364.34;5093216;28;20055;-80
2021/03/23 03:31:01;;;;;;;55.35;32.78;;;8.30;99.90;;;8.73;70.67;102363.59;5094404;28;20556;-80
2021/03/23 03:33:28;;;;;;;51.45;33.90;;;8.40;99.90;;;8.73;71.06;102364.44;5094386;28;20052;-79
2021/03/23 03:36:05;;;;;;;49.90;31.23;;;8.50;99.90;;;8.82;71.83;102359.44;5094374;28;20071;-80
2021/03/23 03:38:32;;;;;;;54.78;32.33;;;8.50;99.90;;;8.84;71.28;102356.84;5094109;28;20052;-81
2021/03/23 03:41:02;;;;;;;55.83;33.58;;;8.50;99.90;;;8.92;71.61;102361.44;5094409;28;20112;-80
2021/03/23 03:43:32;;;;;;;55.75;32.47;;;8.60;99.90;;;8.98;71.44;102355.47;5094205;28;20504;-80
2021/03/23 03:46:06;;;;;;;52.40;34.38;;;8.60;99.90;;;8.93;71.33;102344.78;5092857;28;20516;-81
2021/03/23 03:48:36;;;;;;;57.10;35.53;;;8.70;99.90;;;8.36;71.33;102232.50;5094103;28;20029;-80
2021/03/23 03:51:04;;;;;;;57.08;33.95;;;8.80;99.90;;;9.14;71.48;102367.31;5093867;28;20052;-80
2021/03/23 03:53:32;;;;;;;58.58;34.60;;;8.90;99.90;;;9.10;71.96;102367.19;5093905;28;20040;-80
2021/03/23 03:56:00;;;;;;;56.45;33.22;;;8.90;99.90;;;9.17;72.40;102375.28;5094056;28;20040;-80
2021/03/23 03:58:27;;;;;;;60.80;35.63;;;8.90;99.90;;;9.20;72.13;102365.69;5094237;28;20421;-80
2021/03/23 04:00:58;;;;;;;52.17;33.30;;;8.90;99.90;;;9.18;72.66;102363.84;5092356;28;20413;-80
2021/03/23 04:03:30;;;;;;;61.45;36.65;;;8.90;99.90;;;9.19;72.42;102361.28;5093715;28;20051;-80
2021/03/23 04:06:06;;;;;;;59.15;34.95;;;8.90;99.90;;;9.26;72.65;102364.94;5093648;28;20046;-80
2021/03/23 04:08:37;;;;;;;63.08;35.63;;;8.90;99.90;;;9.27;72.56;102358.81;5093870;28;20189;-80
2021/03/23 04:11:07;;;;;;;56.47;36.90;;;8.90;99.90;;;9.30;72.51;102362.44;5093629;28;20431;-80
2021/03/23 04:13:36;;;;;;;59.50;36.60;;;9.00;99.90;;;9.25;73.14;102352.59;5093582;28;20048;-80
2021/03/23 04:16:06;;;;;;;58.72;36.70;;;9.00;99.90;;;9.28;73.14;102356.22;5093438;28;20036;-80
2021/03/23 04:18:35;;;;;;;68.15;38.67;;;9.00;99.90;;;9.31;73.52;102361.56;5092917;28;20044;-80
2021/03/23 04:21:06;;;;;;;65.57;38.55;;;9.00;99.90;;;9.28;73.80;102360.59;5093542;28;20040;-81
2021/03/23 04:23:39;;;;;;;65.00;39.63;;;9.00;99.90;;;8.98;73.76;102292.13;5093454;28;20044;-81
2021/03/23 04:26:08;;;;;;;;;;;9.10;99.90;;;9.34;73.98;102361.66;5093941;28;20089;-81
2021/03/23 04:28:38;;;;;;;66.22;39.65;;;9.10;99.90;;;9.37;74.07;102359.06;5091828;28;20380;-80
2021/03/23 04:31:06;;;;;;;68.57;41.28;;;9.10;99.90;;;9.35;74.32;102357.28;5093186;28;20047;-81
2021/03/23 04:33:37;;;;;;;66.82;43.28;;;9.10;99.90;;;9.37;74.99;102355.56;5093492;28;20048;-81
2021/03/23 04:36:08;;;;;;;73.35;43.22;;;9.10;99.90;;;9.39;74.72;102349.44;5093110;28;20109;-81
2021/03/23 04:38:38;;;;;;;69.30;42.90;;;9.10;99.90;;;9.28;75.46;102368.50;5093169;28;20048;-80
2021/03/23 04:41:09;;;;;;;69.72;42.63;;;9.10;99.90;;;9.39;75.55;102352.06;5093155;28;20040;-80
2021/03/23 04:43:38;;;;;;;;;;;9.10;99.90;;;9.36;75.63;102348.47;5093418;28;20515;-81
2021/03/23 04:46:07;;;;;;;76.00;45.25;;;9.10;99.90;;;9.26;76.28;102339.44;5093199;28;19923;-79
2021/03/23 04:48:34;;;;;;;74.25;45.42;;;9.10;99.90;;;9.31;76.24;102345.72;5091739;28;20098;-81
2021/03/23 04:51:05;;;;;;;69.95;43.97;;;9.00;99.90;;;9.28;76.37;102343.00;5093001;28;20036;-81
2021/03/23 04:53:34;;;;;;;;;;;9.00;99.90;;;9.24;76.78;102348.16;5093784;28;20060;-81
2021/03/23 04:56:03;;;;;;;77.00;44.85;;;9.00;99.90;;;9.17;76.82;102344.50;5092806;28;19928;-80
2021/03/23 04:58:31;;;;;;;78.40;46.20;;;8.90;99.90;;;9.09;77.41;102341.69;5091550;28;20052;-81
2021/03/23 05:01:00;;;;;;;81.50;48.65;;;8.80;99.90;;;9.09;77.79;102343.41;5092789;28;20127;-81
2021/03/23 05:03:31;;;;;;;75.72;46.05;;;8.80;99.90;;;9.14;77.90;102347.06;5092934;28;20051;-81
2021/03/23 05:06:04;;;;;;;;;;;8.80;99.90;;;9.15;78.29;102340.03;5093282;28;20040;-81
2021/03/23 05:08:32;;;;;;;86.45;46.80;;;8.90;99.90;;;9.27;78.29;102340.34;5092692;28;19924;-79
2021/03/23 05:11:00;;;;;;;93.20;48.70;;;8.90;99.90;;;9.21;77.87;102348.09;5092856;28;20089;-76
2021/03/23 05:13:28;;;;;;;83.40;47.33;;;8.90;99.90;;;9.28;78.03;102353.56;5092840;28;20044;-76
2021/03/23 05:15:57;;;;;;;79.82;47.47;;;8.90;99.90;;;9.35;78.26;102352.00;5092748;28;20032;-76
2021/03/23 05:18:25;;;;;;;82.65;47.67;;;9.00;99.90;;;9.16;78.05;102339.16;5092641;28;20036;-75
2021/03/23 05:20:53;;;;;;;84.63;49.75;;;9.00;99.90;;;9.42;77.42;102349.53;5092454;28;20134;-73
2021/03/23 05:23:21;;;;;;;80.07;47.75;;;9.10;99.90;;;9.36;77.42;102338.81;5108326;28;20516;-73
2021/03/23 05:25:50;;;;;;;87.47;47.63;;;9.20;99.90;;;9.57;77.32;102371.03;5092730;28;20138;-73
2021/03/23 05:28:18;;;;;;;83.82;46.83;;;9.20;99.90;;;9.56;77.03;102369.22;5091742;28;20052;-73
2021/03/23 05:30:46;;;;;;;82.22;46.83;;;9.30;99.90;;;9.65;77.19;102373.84;5094702;28;20040;-73
2021/03/23 05:33:14;;;;;;;84.70;47.03;;;9.30;99.90;;;9.68;77.32;102365.97;5096440;28;20408;-73
2021/03/23 05:35:43;;;;;;;87.93;49.17;;;9.30;99.90;;;9.70;77.17;102366.91;5096840;28;20105;-72
2021/03/23 05:38:11;;;;;;;89.47;48.80;;;9.40;99.90;;;9.61;77.20;102364.03;5096484;28;20040;-72
2021/03/23 05:40:43;;;;;;;88.93;49.13;;;9.40;99.90;;;9.66;77.40;102367.69;5096434;28;20417;-75
2021/03/23 05:43:37;;;;;;;87.57;47.38;;;9.30;99.90;;;9.71;77.84;102363.41;5095256;28;20590;-72
2021/03/23 05:46:19;;;;;;;91.93;49.35;;;9.40;99.90;;;9.71;77.74;102366.97;5096314;28;20401;-72
2021/03/23 05:49:00;;;;;;;84.15;47.85;;;9.40;99.90;;;9.72;77.39;102373.09;5096522;28;20043;-72
2021/03/23 05:51:33;;;;;;;92.30;48.50;;;9.40;99.90;;;9.64;77.94;102362.38;5096401;28;20036;-72
2021/03/23 05:54:08;;;;;;;84.60;48.38;;;9.40;99.90;;;9.75;77.84;102376.75;5096306;28;20047;-73
2021/03/23 05:56:38;;;;;;;85.68;48.00;;;9.40;99.90;;;9.82;77.80;102375.09;5096356;28;20077;-72
2021/03/23 05:59:14;;;;;;;88.90;49.28;;;9.50;99.90;;;9.84;77.95;102376.94;5096071;28;20097;-73
2021/03/23 06:01:49;;;;;;;82.05;46.13;;;9.50;99.90;;;9.70;78.03;102365.16;5096051;28;20052;-73
2021/03/23 06:04:25;;;;;;;82.30;46.38;;;9.50;99.90;;;9.75;78.19;102376.75;5096190;28;20040;-72
2021/03/23 06:07:01;;;;;;;79.60;47.83;;;9.40;99.90;;;9.71;78.68;102368.69;5096006;28;20039;-73
2021/03/23 06:09:33;;;;;;;78.00;46.65;;;9.40;99.90;;;9.78;78.46;102375.91;5096410;28;20036;-72
2021/03/23 06:12:13;;;;;;;71.78;44.17;;;9.40;99.90;;;9.74;78.71;102372.28;5112069;28;20527;-72
2021/03/23 06:14:48;;;;;;;77.50;45.78;;;9.40;99.90;;;8.94;78.62;102237.47;5095978;28;20051;-72
2021/03/23 06:17:26;;;;;;;72.95;45.97;;;9.40;99.90;;;9.16;78.74;102276.72;5094413;28;20558;-72
2021/03/23 06:20:07;;;;;;;74.80;45.55;;;9.40;99.90;;;9.78;78.02;102368.88;5096019;28;20043;-72
2021/03/23 06:22:58;;;;;;;70.90;43.58;;;9.40;99.90;;;9.80;77.82;102379.47;5095674;28;20119;-72
2021/03/23 06:25:35;;;;;;;76.65;45.03;;;9.50;99.90;;;9.69;77.96;102376.59;5095668;28;20048;-72
2021/03/23 06:28:28;;;;;;;72.90;44.92;;;9.40;99.90;;;9.71;78.41;102379.25;5095550;28;20101;-72
2021/03/23 06:31:01;;;;;;;76.32;45.08;;;9.40;99.90;;;9.79;78.30;102381.22;5095409;28;20047;-72
2021/03/23 06:33:31;;;;;;;76.85;45.60;;;9.40;99.90;;;9.74;78.42;102385.50;5095607;28;20123;-73
2021/03/23 06:36:03;;;;;;;70.95;44.53;;;9.40;99.90;;;9.83;77.78;102383.06;5095372;28;20040;-72
2021/03/23 06:38:38;;;;;;;74.65;46.17;;;9.40;99.90;;;9.86;77.76;102391.09;5095511;28;20094;-73
2021/03/23 06:41:31;;;;;;;70.57;43.80;;;9.50;99.90;;;9.50;78.19;102315.38;5095256;28;20044;-73
2021/03/23 06:44:21;;;;;;;74.55;44.80;;;9.50;99.90;;;9.90;78.47;102389.41;5076930;28;20497;-72
2021/03/23 06:46:52;;;;;;;70.65;44.38;;;9.50;99.90;;;9.83;78.82;102385.72;5095189;28;20055;-72
2021/03/23 06:49:32;;;;;;;76.95;45.38;;;9.50;99.90;;;9.82;79.00;102393.59;5095337;28;20051;-72
2021/03/23 06:52:22;;;;;;;73.90;44.63;;;9.50;99.90;;;9.89;78.95;102393.78;5095312;28;20068;-72
2021/03/23 06:55:23;;;;;;;69.68;43.70;;;9.60;99.90;;;9.97;78.55;102399.25;5110555;28;20499;-72
2021/03/23 06:57:52;;;;;;;72.03;44.00;;;9.60;99.90;;;9.97;78.78;102400.13;5093148;28;20056;-71
2021/03/23 07:00:27;;;;;;;77.10;46.65;;;9.70;99.90;;;9.91;79.25;102396.47;5095048;28;20432;-71
2021/03/23 07:03:11;;;;;;;67.63;45.13;;;9.60;99.90;;;9.99;79.00;102403.72;5094642;28;20420;-71
2021/03/23 07:05:42;;;;;;;77.50;47.28;;;9.70;99.90;;;10.03;78.97;102400.28;5095040;28;20047;-72
2021/03/23 07:08:22;;;;;;;;;;;9.70;99.90;;;10.05;79.16;102416.16;5095094;28;20378;-72
2021/03/23 07:11:14;;;;;;;74.10;44.75;;;9.70;99.90;;;10.08;78.91;102407.41;5094021;28;20372;-72
2021/03/23 07:13:43;;;;;;;72.35;42.65;;;9.70;99.90;;;9.98;79.32;102403.69;5079750;28;20512;-72
2021/03/23 07:16:29;;;;;;;73.28;42.97;;;9.70;99.90;;;9.94;79.59;102410.66;5094684;28;20076;-72
2021/03/23 07:19:10;;;;;;;67.95;44.30;;;9.70;99.90;;;9.98;80.00;102403.69;5094758;28;20079;-72
2021/03/23 07:21:49;;;;;;;76.15;44.17;;;9.70;99.90;;;9.91;79.87;102407.94;5093367;28;20382;-72
2021/03/23 07:24:19;;;;;;;75.97;43.55;;;9.70;99.90;;;9.93;80.51;102408.84;5109979;28;20529;-72
2021/03/23 07:26:59;;;;;;;;;;;9.60;99.90;;;9.96;80.55;102408.94;5095088;28;20040;-72
2021/03/23 07:29:31;;;;;;;70.50;41.90;;;9.70;99.90;;;9.83;80.84;102405.97;5094107;28;19920;-72
2021/03/23 07:32:34;;;;;;;78.05;45.92;;;9.60;99.90;;;9.93;80.89;102413.25;5094294;28;20093;-72
2021/03/23 07:35:16;;;;;;;77.78;43.65;;;9.60;99.90;;;10.00;80.73;102417.84;5094200;28;20044;-72
2021/03/23 07:37:53;;;;;;;74.63;44.78;;;9.60;99.90;;;9.83;81.16;102420.06;5094251;28;20040;-72
2021/03/23 07:40:33;;;;;;;88.22;46.50;;;9.60;99.90;;;9.76;81.24;102414.59;5094113;28;20036;-72
2021/03/23 07:43:21;;;;;;;81.05;45.00;;;9.50;99.90;;;9.67;81.39;102388.88;5093874;28;20055;-72
2021/03/23 07:46:00;;;;;;;83.63;46.53;;;9.50;99.90;;;9.68;82.07;102417.06;5092945;28;20040;-72
2021/03/23 07:48:45;;;;;;;82.05;46.50;;;9.50;99.90;;;9.70;82.10;102420.63;5094187;28;20044;-72
2021/03/23 07:51:33;;;;;;;82.53;46.35;;;9.40;99.90;;;9.75;82.13;102426.03;5094001;28;20509;-72
2021/03/23 07:54:29;;;;;;;87.15;48.33;;;9.40;99.90;;;9.77;82.13;102419.03;5109848;28;20079;-72
2021/03/23 07:57:30;;;;;;;80.05;46.08;;;9.50;99.90;;;9.71;81.66;102422.44;5092678;28;20413;-72
2021/03/23 08:00:12;;;;;;;;;;;9.50;99.90;;;9.80;82.10;102435.88;5094398;28;20028;-72
2021/03/23 08:03:26;;;;;;;84.75;48.10;;;9.50;99.90;;;9.87;81.55;102439.56;5093663;28;19920;-72
2021/03/23 08:06:02;;;;;;;79.13;45.78;;;9.60;99.90;;;9.88;81.59;102436.03;5067756;28;20538;-71
2021/03/23 08:08:51;;;;;;;84.10;45.13;;;9.60;99.90;;;9.90;81.25;102434.31;5093757;28;20431;-72
2021/03/23 08:11:34;;;;;;;74.22;43.85;;;9.60;99.90;;;10.08;81.29;102444.44;5093635;28;20816;-72
2021/03/23 08:14:28;;;;;;;74.10;44.22;;;9.70;99.90;;;10.11;80.64;102449.81;5093435;28;20163;-72
2021/03/23 08:17:38;;;;;;;73.95;43.17;;;9.80;99.90;;;9.96;80.60;102432.72;5093763;28;20044;-72
2021/03/23 08:20:45;;;;;;;81.65;44.40;;;9.80;99.90;;;10.22;80.55;102450.97;5093459;28;20052;-72
2021/03/23 08:23:36;;;;;;;78.50;44.40;;;9.90;99.90;;;10.09;80.10;102432.97;5093472;28;20085;-72
2021/03/23 08:26:19;;;;;;;72.28;44.13;;;9.90;99.90;;;10.22;79.82;102437.75;5093366;28;20081;-72
2021/03/23 08:28:49;;;;;;;73.28;43.17;;;10.00;99.90;;;10.27;79.33;102462.53;5093374;28;20397;-72
2021/03/23 08:31:54;;;;;;;69.78;43.38;;;10.00;99.90;;;10.34;79.59;102464.44;5093479;28;20101;-72
2021/03/23 08:34:49;;;;;;;78.53;43.22;;;10.00;99.90;;;10.45;78.65;102457.66;5093246;28;20051;-72
2021/03/23 08:37:40;;;;;;;69.25;40.10;;;10.10;99.90;;;10.49;78.16;102463.03;5089281;28;20059;-72
2021/03/23 08:40:26;;;;;;;78.72;42.63;;;10.20;99.90;;;10.43;78.19;102470.81;5093119;28;20378;-72
2021/03/23 08:42:53;;;;;;;71.85;42.55;;;10.20;99.90;;;10.47;78.02;102475.31;5092990;28;20047;-72
2021/03/23 08:45:27;;;;;;;70.50;42.45;;;10.20;99.90;;;10.56;77.83;102469.34;5092841;28;20113;-72
2021/03/23 08:48:02;;;;;;;81.97;42.78;;;10.20;99.90;;;10.62;77.24;102470.38;5093181;28;20040;-72
2021/03/23 08:50:36;;;;;;;68.80;40.70;;;10.30;99.90;;;10.67;76.59;102470.47;5093107;28;20484;-72
2021/03/23 08:53:39;;;;;;;71.20;42.28;;;10.30;99.90;;;10.80;76.58;102462.81;5093040;28;20059;-72
2021/03/23 08:56:07;;;;;;;69.82;40.20;;;10.40;99.90;;;10.74;76.21;102459.16;5093121;28;20046;-72
2021/03/23 08:58:54;;;;;;;67.40;39.75;;;10.50;99.90;;;10.90;75.44;102462.13;5092471;28;20052;-72
2021/03/23 09:01:40;;;;;;;68.07;40.53;;;10.60;99.90;;;10.84;74.93;102463.75;5092310;28;20056;-72
2021/03/23 09:04:33;;;;;;;68.32;39.30;;;10.60;99.90;;;11.04;74.68;102462.41;5090927;28;20044;-72
2021/03/23 09:07:03;;;;;;;66.90;39.67;;;10.70;99.90;;;11.01;74.25;102472.94;5092868;28;20044;-72
2021/03/23 09:09:42;;;;;;;67.40;41.15;;;10.80;99.90;;;11.11;74.01;102463.41;5091225;28;20051;-71
2021/03/23 09:12:17;;;;;;;68.95;39.35;;;10.80;99.90;;;11.24;73.30;102455.72;5092365;28;20109;-72
2021/03/23 09:15:22;;;;;;;65.40;40.53;;;10.90;99.90;;;11.35;73.55;102453.25;5092314;28;20155;-72
2021/03/23 09:18:25;;;;;;;65.57;40.30;;;11.00;99.90;;;11.30;73.55;102447.91;5091919;28;20405;-72
2021/03/23 09:21:08;;;;;;;70.32;39.65;;;11.00;99.90;;;10.83;73.37;102354.34;5091029;28;20533;-72
2021/03/23 09:23:51;;;;;;;64.68;39.63;;;11.20;99.90;;;11.17;73.15;102411.44;5091315;28;20132;-72
2021/03/23 09:26:49;;;;;;;65.10;38.22;;;11.20;99.90;;;11.60;72.85;102464.31;5092612;28;20409;-72
2021/03/23 09:29:42;;;;;;;66.32;40.15;;;11.30;99.90;;;11.91;72.38;102457.78;5092583;28;20396;-72
2021/03/23 09:32:14;;;;;;;58.22;37.30;;;11.60;99.90;;;12.21;71.30;102470.63;5092348;28;20044;-72
2021/03/23 09:35:21;;;;;;;59.80;37.03;;;11.90;99.90;;;12.67;70.50;102478.34;5092626;28;20052;-72
2021/03/23 09:37:59;;;;;;;58.50;36.03;;;12.20;99.90;;;12.51;69.06;102444.50;5092403;28;20048;-72
2021/03/23 09:40:55;;;;;;;62.95;35.95;;;12.40;99.90;;;12.61;68.79;102465.88;5091207;28;20408;-71
2021/03/23 09:43:36;;;;;;;63.30;37.10;;;12.40;99.90;;;12.59;68.85;102467.63;5092040;28;20047;-72
2021/03/23 09:46:41;;;;;;;62.28;35.85;;;12.30;99.90;;;12.44;69.28;102461.22;5090712;28;20052;-72
2021/03/23 09:49:18;;;;;;;57.05;36.25;;;12.10;99.90;;;12.50;69.76;102458.66;5092409;28;20055;-72
2021/03/23 09:51:55;;;;;;;53.03;34.38;;;12.20;99.90;;;12.17;69.82;102435.22;5091021;28;20346;-72
2021/03/23 09:54:28;;;;;;;57.38;34.13;;;12.10;99.90;;;12.22;69.70;102460.03;5092064;28;20078;-72
2021/03/23 09:56:59;;;;;;;57.78;34.75;;;12.00;99.90;;;12.17;70.49;102460.84;5092478;28;20051;-72
2021/03/23 09:59:49;;;;;;;;;;;11.90;99.90;;;12.11;69.81;102466.03;5092764;28;20480;-72
2021/03/23 10:02:24;;;;;;;54.85;34.13;;;11.80;99.90;;;12.08;69.92;102460.72;5092318;28;19927;-72
2021/03/23 10:04:52;;;;;;;59.38;35.50;;;11.80;99.90;;;11.89;69.86;102454.22;5092070;28;20068;-72
2021/03/23 10:07:33;;;;;;;63.22;35.53;;;11.70;99.90;;;11.83;70.47;102471.81;5092122;28;20048;-72
2021/03/23 10:10:13;;;;;;;61.75;36.33;;;11.60;99.90;;;11.69;71.07;102474.22;5092348;28;20048;-72
2021/03/23 10:12:41;;;;;;;59.33;37.30;;;11.50;99.90;;;11.69;71.41;102467.16;5092124;28;20048;-71
2021/03/23 10:15:23;;;;;;;66.43;38.63;;;11.40;99.90;;;11.73;71.31;102468.97;5091794;28;20093;-72
2021/03/23 10:17:51;;;;;;;68.32;37.95;;;11.40;99.90;;;11.40;71.37;102388.00;5094340;28;20119;-72
2021/03/23 10:20:22;;;;;;;62.78;39.90;;;11.50;99.90;;;11.92;71.36;102463.97;5094428;28;20066;-72
2021/03/23 10:22:54;;;;;;;63.40;38.47;;;11.60;99.90;;;11.95;70.99;102456.97;5094355;28;20451;-72
2021/03/23 10:25:24;;;;;;;65.65;39.47;;;11.60;99.90;;;11.94;70.85;102468.47;5095551;28;20050;-72
2021/03/23 10:27:51;;;;;;;63.60;38.92;;;11.70;99.90;;;11.46;70.62;102375.72;5095303;28;20526;-72
2021/03/23 10:30:35;;;;;;;60.63;37.45;;;11.70;99.90;;;11.84;69.91;102461.22;5095525;28;20044;-72
2021/03/23 10:33:20;;;;;;;61.03;39.30;;;11.60;99.90;;;11.93;69.80;102471.97;5095500;28;20568;-72
2021/03/23 10:35:55;;;;;;;70.50;39.75;;;11.60;99.90;;;12.07;70.02;102496.94;5095412;28;20047;-72
2021/03/23 10:38:40;;;;;;;63.67;39.17;;;11.70;99.90;;;12.15;69.68;102473.19;5095509;28;20052;-72
2021/03/23 10:41:34;;;;;;;62.55;40.85;;;11.80;99.90;;;12.00;69.93;102479.13;5095748;28;20040;-72
2021/03/23 10:44:22;;;;;;;63.50;39.95;;;11.80;99.90;;;11.91;70.19;102473.69;5095205;28;20036;-73
2021/03/23 10:46:52;;;;;;;66.63;40.20;;;11.60;99.90;;;11.55;70.07;102418.31;5095387;28;20044;-72